Polar Viking — LDVH — position and weather

sailwx.info

Track history (hours):
 
Tides and Currents Weather Stations Pressure Air Temp Water Temp Dewpoint Dewpoint Depression Visibility Wind Speed Wind Dir Waves Ship Positions

Polar Viking

Last reported at 2018-Feb-03 12:40 UTC. Time now 2018-Feb-20 12:14 UTC.
Position N 62°47' E 006°57'.
Warning: this ship's position is 16 days out of date.

Length 28 m; draft 4 m.

Type: Tug. MMSI: 258587000.

Date/timePositionNaut miles runAvg speedWind from/ knotsBaromVisibWave heightAir tempDewpointWater temp
2018-Feb-03 12:40N 62°47' E 006°57'2 9.3
2018-Feb-03 12:25N 62°49' E 006°58'3 8.6
2018-Feb-03 12:00N 62°52' E 006°56'5 8.2
2018-Feb-03 11:20N 62°58' E 006°52'3 8.6
2018-Feb-03 10:59N 62°60' E 006°57'4 9.2
2018-Feb-03 10:30N 63°02' E 007°05'5 9.0
2018-Feb-03 09:59N 63°03' E 007°14'4 8.9
2018-Feb-03 09:30N 63°04' E 007°24'5 9.2
2018-Feb-03 09:00N 63°07' E 007°32'5 9.2
2018-Feb-03 08:30N 63°09' E 007°41'5 9.6
2018-Feb-03 08:00N 63°12' E 007°50'4910.0
2018-Feb-03 03:05N 63°36' E 009°26'80 9.0
2018-Feb-02 18:11N 64°44' E 010°59'2 9.5
2018-Feb-02 18:00N 64°46' E 011°01'5 9.5
2018-Feb-02 17:28N 64°50' E 011°09'510.2
2018-Feb-02 17:00N 64°53' E 011°17'5 9.9
2018-Feb-02 16:31N 64°56' E 011°26'11 9.3
2018-Feb-02 15:22N 65°03' E 011°44'12 9.4
2018-Feb-02 14:05N 65°14' E 011°55'1 9.2
2018-Feb-02 14:00N 65°15' E 011°56'55 8.5
2018-Feb-02 07:34N 66°06' E 012°43'1 9.5
2018-Feb-02 07:28N 66°07' E 012°44'610.0
2018-Feb-02 06:52N 66°12' E 012°52'5 9.9
2018-Feb-02 06:22N 66°17' E 012°55'4 9.9
2018-Feb-02 06:00N 66°20' E 012°57'510.0
2018-Feb-02 05:28N 66°26' E 012°59'6 9.9
2018-Feb-02 04:52N 66°32' E 012°58'7 8.8
2018-Feb-02 04:03N 66°38' E 013°06'110.0
2018-Feb-02 03:56N 66°39' E 013°07'10 9.9
2018-Feb-02 02:54N 66°49' E 013°15'6 9.4
2018-Feb-02 02:16N 66°54' E 013°25'4 8.7
2018-Feb-02 01:52N 66°57' E 013°29'3 9.0
2018-Feb-02 01:30N 66°59' E 013°35'5 9.8
2018-Feb-02 01:00N 67°02' E 013°45'5 9.7
2018-Feb-02 00:30N 67°05' E 013°55'5 9.1
2018-Feb-02 00:00N 67°09' E 014°02'5 9.2
2018-Feb-01 23:31N 67°12' E 014°07'5 9.5
2018-Feb-01 23:00N 67°17' E 014°14'9 9.5
2018-Feb-01 22:00N 67°25' E 014°27'5 9.6
2018-Feb-01 21:30N 67°29' E 014°34'14 1.6
2018-Feb-01 12:56N 67°38' E 015°01'  
Track history (hours):
 
Tides and Currents Weather Stations Pressure Air Temp Water Temp Dewpoint Dewpoint Depression Visibility Wind Speed Wind Dir Waves Ship Positions

Polar Viking

Last reported at 2018-Feb-03 12:40 UTC. Time now 2018-Feb-20 12:14 UTC.
Position N 62°47' E 006°57'.
Warning: this ship's position is 16 days out of date.

Length 28 m; draft 4 m.

Type: Tug. MMSI: 258587000.

Date/timePositionNaut miles runAvg speedWind from/ knotsBaromVisibWave heightAir tempDewpointWater temp
2018-Feb-03 12:40N 62°47' E 006°57'2 9.3
2018-Feb-03 12:25N 62°49' E 006°58'3 8.6
2018-Feb-03 12:00N 62°52' E 006°56'5 8.2
2018-Feb-03 11:20N 62°58' E 006°52'3 8.6
2018-Feb-03 10:59N 62°60' E 006°57'4 9.2
2018-Feb-03 10:30N 63°02' E 007°05'5 9.0
2018-Feb-03 09:59N 63°03' E 007°14'4 8.9
2018-Feb-03 09:30N 63°04' E 007°24'5 9.2
2018-Feb-03 09:00N 63°07' E 007°32'5 9.2
2018-Feb-03 08:30N 63°09' E 007°41'5 9.6
2018-Feb-03 08:00N 63°12' E 007°50'4910.0
2018-Feb-03 03:05N 63°36' E 009°26'80 9.0
2018-Feb-02 18:11N 64°44' E 010°59'2 9.5
2018-Feb-02 18:00N 64°46' E 011°01'5 9.5
2018-Feb-02 17:28N 64°50' E 011°09'510.2
2018-Feb-02 17:00N 64°53' E 011°17'5 9.9
2018-Feb-02 16:31N 64°56' E 011°26'11 9.3
2018-Feb-02 15:22N 65°03' E 011°44'12 9.4
2018-Feb-02 14:05N 65°14' E 011°55'1 9.2
2018-Feb-02 14:00N 65°15' E 011°56'55 8.5
2018-Feb-02 07:34N 66°06' E 012°43'1 9.5
2018-Feb-02 07:28N 66°07' E 012°44'610.0
2018-Feb-02 06:52N 66°12' E 012°52'5 9.9
2018-Feb-02 06:22N 66°17' E 012°55'4 9.9
2018-Feb-02 06:00N 66°20' E 012°57'510.0
2018-Feb-02 05:28N 66°26' E 012°59'6 9.9
2018-Feb-02 04:52N 66°32' E 012°58'7 8.8
2018-Feb-02 04:03N 66°38' E 013°06'110.0
2018-Feb-02 03:56N 66°39' E 013°07'10 9.9
2018-Feb-02 02:54N 66°49' E 013°15'6 9.4
2018-Feb-02 02:16N 66°54' E 013°25'4 8.7
2018-Feb-02 01:52N 66°57' E 013°29'3 9.0
2018-Feb-02 01:30N 66°59' E 013°35'5 9.8
2018-Feb-02 01:00N 67°02' E 013°45'5 9.7
2018-Feb-02 00:30N 67°05' E 013°55'5 9.1
2018-Feb-02 00:00N 67°09' E 014°02'5 9.2
2018-Feb-01 23:31N 67°12' E 014°07'5 9.5
2018-Feb-01 23:00N 67°17' E 014°14'9 9.5
2018-Feb-01 22:00N 67°25' E 014°27'5 9.6
2018-Feb-01 21:30N 67°29' E 014°34'14 1.6
2018-Feb-01 12:56N 67°38' E 015°01'  

Dump ship's entire track history